sensor_id;sensor_type;location;lat;lon;timestamp;pressure;altitude;pressure_sealevel;temperature;humidity
29549;BME280;16487;53.094;8.800;2023-05-31T00:00:45;102825.22;;;15.75;100.00
29549;BME280;16487;53.094;8.800;2023-05-31T00:03:12;102833.78;;;15.68;100.00
29549;BME280;16487;53.094;8.800;2023-05-31T00:05:40;102827.66;;;15.73;100.00
29549;BME280;16487;53.094;8.800;2023-05-31T00:08:07;102826.69;;;15.83;100.00
29549;BME280;16487;53.094;8.800;2023-05-31T00:10:37;102827.78;;;15.89;100.00
29549;BME280;16487;53.094;8.800;2023-05-31T00:13:05;102835.78;;;15.68;100.00
29549;BME280;16487;53.094;8.800;2023-05-31T00:15:32;102838.53;;;15.94;100.00
29549;BME280;16487;53.094;8.800;2023-05-31T00:17:59;102830.72;;;15.59;100.00
29549;BME280;16487;53.094;8.800;2023-05-31T00:20:27;102827.38;;;15.41;100.00
29549;BME280;16487;53.094;8.800;2023-05-31T00:22:54;102831.34;;;15.17;100.00
29549;BME280;16487;53.094;8.800;2023-05-31T00:25:22;102819.78;;;15.38;100.00
29549;BME280;16487;53.094;8.800;2023-05-31T00:27:51;102818.44;;;15.73;100.00
29549;BME280;16487;53.094;8.800;2023-05-31T00:30:18;102813.53;;;15.54;100.00
29549;BME280;16487;53.094;8.800;2023-05-31T00:32:47;102818.78;;;15.52;100.00
29549;BME280;16487;53.094;8.800;2023-05-31T00:35:15;102816.28;;;15.80;100.00
29549;BME280;16487;53.094;8.800;2023-05-31T00:37:43;102815.97;;;15.52;100.00
29549;BME280;16487;53.094;8.800;2023-05-31T00:40:10;102809.94;;;15.53;100.00
29549;BME280;16487;53.094;8.800;2023-05-31T00:42:38;102812.06;;;15.46;100.00
29549;BME280;16487;53.094;8.800;2023-05-31T00:45:07;102807.44;;;15.59;100.00
29549;BME280;16487;53.094;8.800;2023-05-31T00:47:35;102820.38;;;15.26;100.00
29549;BME280;16487;53.094;8.800;2023-05-31T00:50:04;102812.53;;;15.14;100.00
29549;BME280;16487;53.094;8.800;2023-05-31T00:52:33;102816.41;;;15.73;100.00
29549;BME280;16487;53.094;8.800;2023-05-31T00:55:02;102814.34;;;15.54;100.00
29549;BME280;16487;53.094;8.800;2023-05-31T00:57:29;102827.41;;;15.38;100.00
29549;BME280;16487;53.094;8.800;2023-05-31T00:59:57;102829.88;;;15.36;100.00
29549;BME280;16487;53.094;8.800;2023-05-31T01:02:29;102822.69;;;15.08;100.00
29549;BME280;16487;53.094;8.800;2023-05-31T01:04:56;102820.44;;;15.23;100.00
29549;BME280;16487;53.094;8.800;2023-05-31T01:07:24;102821.34;;;15.16;100.00
29549;BME280;16487;53.094;8.800;2023-05-31T01:09:53;102822.09;;;15.20;100.00
29549;BME280;16487;53.094;8.800;2023-05-31T01:12:25;102825.59;;;15.54;100.00
29549;BME280;16487;53.094;8.800;2023-05-31T01:15:05;102822.09;;;15.20;100.00
29549;BME280;16487;53.094;8.800;2023-05-31T01:17:40;102811.22;;;15.49;100.00
29549;BME280;16487;53.094;8.800;2023-05-31T01:20:14;102812.38;;;15.51;100.00
29549;BME280;16487;53.094;8.800;2023-05-31T01:22:55;102811.81;;;15.83;100.00
29549;BME280;16487;53.094;8.800;2023-05-31T01:25:35;102803.69;;;15.65;100.00
29549;BME280;16487;53.094;8.800;2023-05-31T01:28:10;102818.19;;;15.64;100.00
29549;BME280;16487;53.094;8.800;2023-05-31T01:30:41;102821.53;;;15.78;100.00
29549;BME280;16487;53.094;8.800;2023-05-31T01:33:12;102819.97;;;15.54;100.00
29549;BME280;16487;53.094;8.800;2023-05-31T01:35:41;102822.47;;;15.49;100.00
29549;BME280;16487;53.094;8.800;2023-05-31T01:38:08;102815.25;;;15.48;100.00
29549;BME280;16487;53.094;8.800;2023-05-31T01:40:36;102814.56;;;15.40;100.00
29549;BME280;16487;53.094;8.800;2023-05-31T01:43:05;102805.41;;;15.59;100.00
29549;BME280;16487;53.094;8.800;2023-05-31T01:45:39;102815.88;;;15.32;100.00
29549;BME280;16487;53.094;8.800;2023-05-31T01:48:08;102810.69;;;15.04;100.00
29549;BME280;16487;53.094;8.800;2023-05-31T01:50:38;102806.19;;;15.10;100.00
29549;BME280;16487;53.094;8.800;2023-05-31T01:53:07;102812.06;;;15.46;100.00
29549;BME280;16487;53.094;8.800;2023-05-31T01:55:35;102806.75;;;14.98;100.00
29549;BME280;16487;53.094;8.800;2023-05-31T01:58:03;102820.56;;;15.42;100.00
29549;BME280;16487;53.094;8.800;2023-05-31T02:00:32;102807.47;;;15.32;100.00
29549;BME280;16487;53.094;8.800;2023-05-31T02:03:02;102814.19;;;15.12;100.00
29549;BME280;16487;53.094;8.800;2023-05-31T02:05:30;102805.66;;;14.92;100.00
29549;BME280;16487;53.094;8.800;2023-05-31T02:08:00;102804.34;;;15.50;100.00
29549;BME280;16487;53.094;8.800;2023-05-31T02:10:28;102809.63;;;15.21;100.00
29549;BME280;16487;53.094;8.800;2023-05-31T02:12:56;102804.44;;;15.20;100.00
29549;BME280;16487;53.094;8.800;2023-05-31T02:15:23;102812.53;;;15.14;100.00
29549;BME280;16487;53.094;8.800;2023-05-31T02:17:50;102810.50;;;15.18;100.00
29549;BME280;16487;53.094;8.800;2023-05-31T02:20:20;102813.59;;;14.97;100.00
29549;BME280;16487;53.094;8.800;2023-05-31T02:22:47;102806.66;;;15.05;100.00
29549;BME280;16487;53.094;8.800;2023-05-31T02:25:15;102814.28;;;15.58;100.00
29549;BME280;16487;53.094;8.800;2023-05-31T02:27:42;102810.88;;;15.20;100.00
29549;BME280;16487;53.094;8.800;2023-05-31T02:30:10;102812.50;;;15.18;100.00
29549;BME280;16487;53.094;8.800;2023-05-31T02:32:38;102818.13;;;15.67;100.00
29549;BME280;16487;53.094;8.800;2023-05-31T02:35:07;102822.81;;;15.24;100.00
29549;BME280;16487;53.094;8.800;2023-05-31T02:37:38;102824.84;;;15.24;100.00
29549;BME280;16487;53.094;8.800;2023-05-31T02:40:06;102824.94;;;15.43;100.00
29549;BME280;16487;53.094;8.800;2023-05-31T02:42:35;102829.66;;;15.50;100.00
29549;BME280;16487;53.094;8.800;2023-05-31T02:45:04;102834.88;;;15.74;100.00
29549;BME280;16487;53.094;8.800;2023-05-31T02:47:31;102824.03;;;15.50;100.00
29549;BME280;16487;53.094;8.800;2023-05-31T02:50:00;102814.97;;;15.39;100.00
29549;BME280;16487;53.094;8.800;2023-05-31T02:52:28;102820.50;;;15.19;100.00
29549;BME280;16487;53.094;8.800;2023-05-31T02:55:35;102831.56;;;15.79;100.00
29549;BME280;16487;53.094;8.800;2023-05-31T02:58:21;102815.63;;;15.23;100.00
29549;BME280;16487;53.094;8.800;2023-05-31T03:01:07;102818.38;;;15.00;100.00
29549;BME280;16487;53.094;8.800;2023-05-31T03:03:41;102813.66;;;15.20;100.00
29549;BME280;16487;53.094;8.800;2023-05-31T03:06:20;102811.06;;;15.06;100.00
29549;BME280;16487;53.094;8.800;2023-05-31T03:08:48;102811.59;;;15.51;100.00
29549;BME280;16487;53.094;8.800;2023-05-31T03:11:17;102815.38;;;14.84;100.00
29549;BME280;16487;53.094;8.800;2023-05-31T03:13:45;102812.81;;;14.97;100.00
29549;BME280;16487;53.094;8.800;2023-05-31T03:16:13;102807.50;;;15.02;100.00
29549;BME280;16487;53.094;8.800;2023-05-31T03:18:40;102807.91;;;15.27;100.00
29549;BME280;16487;53.094;8.800;2023-05-31T03:21:08;102811.31;;;15.15;100.00
29549;BME280;16487;53.094;8.800;2023-05-31T03:23:39;102816.84;;;15.49;100.00
29549;BME280;16487;53.094;8.800;2023-05-31T03:26:06;102824.78;;;15.54;100.00
29549;BME280;16487;53.094;8.800;2023-05-31T03:28:35;102825.09;;;15.82;100.00
29549;BME280;16487;53.094;8.800;2023-05-31T03:31:03;102813.91;;;15.29;100.00
29549;BME280;16487;53.094;8.800;2023-05-31T03:33:30;102815.44;;;15.83;100.00
29549;BME280;16487;53.094;8.800;2023-05-31T03:35:58;102814.59;;;15.10;100.00
29549;BME280;16487;53.094;8.800;2023-05-31T03:38:27;102821.19;;;15.00;100.00
29549;BME280;16487;53.094;8.800;2023-05-31T03:40:55;102807.84;;;15.31;100.00
29549;BME280;16487;53.094;8.800;2023-05-31T03:43:24;102803.19;;;14.98;100.00
29549;BME280;16487;53.094;8.800;2023-05-31T03:45:55;102797.34;;;14.85;100.00
29549;BME280;16487;53.094;8.800;2023-05-31T03:48:23;102803.13;;;15.01;100.00
29549;BME280;16487;53.094;8.800;2023-05-31T03:50:51;102800.53;;;15.37;100.00
29549;BME280;16487;53.094;8.800;2023-05-31T03:53:19;102808.84;;;15.47;100.00
29549;BME280;16487;53.094;8.800;2023-05-31T03:55:46;102805.41;;;15.59;100.00
29549;BME280;16487;53.094;8.800;2023-05-31T03:58:14;102813.66;;;15.20;100.00
29549;BME280;16487;53.094;8.800;2023-05-31T04:00:41;102814.59;;;15.10;100.00
29549;BME280;16487;53.094;8.800;2023-05-31T04:03:11;102819.09;;;15.31;100.00
29549;BME280;16487;53.094;8.800;2023-05-31T04:05:39;102808.41;;;15.22;100.00
29549;BME280;16487;53.094;8.800;2023-05-31T04:08:08;102806.50;;;15.42;100.00
29549;BME280;16487;53.094;8.800;2023-05-31T04:10:35;102811.66;;;15.70;100.00
29549;BME280;16487;53.094;8.800;2023-05-31T04:13:02;102817.91;;;15.05;100.00
29549;BME280;16487;53.094;8.800;2023-05-31T04:15:30;102821.28;;;15.20;100.00
29549;BME280;16487;53.094;8.800;2023-05-31T04:18:01;102821.19;;;15.76;100.00
29549;BME280;16487;53.094;8.800;2023-05-31T04:20:30;102823.75;;;15.67;100.00
29549;BME280;16487;53.094;8.800;2023-05-31T04:23:01;102828.16;;;15.68;100.00
29549;BME280;16487;53.094;8.800;2023-05-31T04:25:28;102828.94;;;15.46;100.00
29549;BME280;16487;53.094;8.800;2023-05-31T04:27:57;102833.56;;;15.29;100.00
29549;BME280;16487;53.094;8.800;2023-05-31T04:30:24;102826.19;;;15.42;100.00
29549;BME280;16487;53.094;8.800;2023-05-31T04:32:52;102829.31;;;15.71;100.00
29549;BME280;16487;53.094;8.800;2023-05-31T04:35:19;102822.91;;;15.70;100.00
29549;BME280;16487;53.094;8.800;2023-05-31T04:37:51;102830.22;;;15.87;100.00
29549;BME280;16487;53.094;8.800;2023-05-31T04:40:18;102833.53;;;15.59;100.00
29549;BME280;16487;53.094;8.800;2023-05-31T04:42:46;102827.22;;;15.52;100.00
29549;BME280;16487;53.094;8.800;2023-05-31T04:45:28;102827.81;;;14.86;100.00
29549;BME280;16487;53.094;8.800;2023-05-31T04:47:56;102821.63;;;15.25;100.00
29549;BME280;16487;53.094;8.800;2023-05-31T04:50:24;102823.69;;;15.21;100.00
29549;BME280;16487;53.094;8.800;2023-05-31T04:52:54;102822.47;;;15.49;100.00
29549;BME280;16487;53.094;8.800;2023-05-31T04:55:23;102818.84;;;15.71;100.00
29549;BME280;16487;53.094;8.800;2023-05-31T04:57:51;102814.94;;;15.65;100.00
29549;BME280;16487;53.094;8.800;2023-05-31T05:00:20;102814.88;;;15.69;100.00
29549;BME280;16487;53.094;8.800;2023-05-31T05:02:59;102820.69;;;15.32;100.00
29549;BME280;16487;53.094;8.800;2023-05-31T05:05:27;102813.09;;;16.21;100.00
29549;BME280;16487;53.094;8.800;2023-05-31T05:07:57;102812.53;;;16.30;100.00
29549;BME280;16487;53.094;8.800;2023-05-31T05:10:25;102827.72;;;15.70;100.00
29549;BME280;16487;53.094;8.800;2023-05-31T05:12:52;102819.03;;;16.27;100.00
29549;BME280;16487;53.094;8.800;2023-05-31T05:15:20;102829.34;;;16.14;100.00
29549;BME280;16487;53.094;8.800;2023-05-31T05:17:47;102830.44;;;15.96;100.00
29549;BME280;16487;53.094;8.800;2023-05-31T05:20:15;102829.06;;;15.85;100.00
29549;BME280;16487;53.094;8.800;2023-05-31T05:22:49;102834.03;;;16.20;100.00
29549;BME280;16487;53.094;8.800;2023-05-31T05:25:19;102835.88;;;16.50;100.00
29549;BME280;16487;53.094;8.800;2023-05-31T05:27:46;102831.50;;;16.26;100.00
29549;BME280;16487;53.094;8.800;2023-05-31T05:30:14;102835.00;;;16.53;100.00
29549;BME280;16487;53.094;8.800;2023-05-31T05:32:42;102831.75;;;16.54;100.00
29549;BME280;16487;53.094;8.800;2023-05-31T05:35:09;102835.59;;;16.99;100.00
29549;BME280;16487;53.094;8.800;2023-05-31T05:37:37;102832.81;;;16.80;100.00
29549;BME280;16487;53.094;8.800;2023-05-31T05:40:05;102837.75;;;16.56;100.00
29549;BME280;16487;53.094;8.800;2023-05-31T05:42:35;102837.25;;;16.97;100.00
29549;BME280;16487;53.094;8.800;2023-05-31T05:45:04;102837.19;;;17.16;100.00
29549;BME280;16487;53.094;8.800;2023-05-31T05:47:32;102833.16;;;17.34;100.00
29549;BME280;16487;53.094;8.800;2023-05-31T05:50:01;102834.91;;;17.11;100.00
29549;BME280;16487;53.094;8.800;2023-05-31T05:52:32;102831.13;;;17.18;100.00
29549;BME280;16487;53.094;8.800;2023-05-31T05:54:59;102833.50;;;17.03;100.00
29549;BME280;16487;53.094;8.800;2023-05-31T05:57:28;102841.72;;;17.30;100.00
29549;BME280;16487;53.094;8.800;2023-05-31T06:00:11;102837.50;;;17.38;100.00
29549;BME280;16487;53.094;8.800;2023-05-31T06:02:45;102834.88;;;17.63;100.00
29549;BME280;16487;53.094;8.800;2023-05-31T06:05:15;102835.63;;;17.15;100.00
29549;BME280;16487;53.094;8.800;2023-05-31T06:07:43;102835.41;;;17.58;100.00
29549;BME280;16487;53.094;8.800;2023-05-31T06:10:13;102834.25;;;18.16;100.00
29549;BME280;16487;53.094;8.800;2023-05-31T06:12:41;102833.63;;;17.80;100.00
29549;BME280;16487;53.094;8.800;2023-05-31T06:15:10;102836.69;;;18.30;100.00
29549;BME280;16487;53.094;8.800;2023-05-31T06:17:40;102840.66;;;18.49;100.00
29549;BME280;16487;53.094;8.800;2023-05-31T06:20:08;102833.56;;;18.70;100.00
29549;BME280;16487;53.094;8.800;2023-05-31T06:22:38;102838.03;;;18.55;100.00
29549;BME280;16487;53.094;8.800;2023-05-31T06:25:06;102835.53;;;19.23;100.00
29549;BME280;16487;53.094;8.800;2023-05-31T06:27:34;102834.09;;;19.31;100.00
29549;BME280;16487;53.094;8.800;2023-05-31T06:30:02;102844.94;;;19.45;100.00
29549;BME280;16487;53.094;8.800;2023-05-31T06:32:51;102843.00;;;19.04;100.00
29549;BME280;16487;53.094;8.800;2023-05-31T06:35:23;102838.47;;;19.57;100.00
29549;BME280;16487;53.094;8.800;2023-05-31T06:37:52;102837.09;;;19.24;100.00
29549;BME280;16487;53.094;8.800;2023-05-31T06:40:21;102837.94;;;19.50;100.00
29549;BME280;16487;53.094;8.800;2023-05-31T06:42:49;102836.34;;;19.49;100.00
29549;BME280;16487;53.094;8.800;2023-05-31T06:45:25;102839.28;;;20.04;100.00
29549;BME280;16487;53.094;8.800;2023-05-31T06:47:54;102847.28;;;20.40;100.00
29549;BME280;16487;53.094;8.800;2023-05-31T06:50:21;102839.22;;;20.82;100.00
29549;BME280;16487;53.094;8.800;2023-05-31T06:53:08;102831.13;;;20.71;100.00
29549;BME280;16487;53.094;8.800;2023-05-31T06:55:40;102833.56;;;20.82;100.00
29549;BME280;16487;53.094;8.800;2023-05-31T06:58:10;102824.03;;;20.67;100.00
29549;BME280;16487;53.094;8.800;2023-05-31T07:00:40;102823.75;;;20.74;100.00
29549;BME280;16487;53.094;8.800;2023-05-31T07:03:09;102814.09;;;20.62;100.00
29549;BME280;16487;53.094;8.800;2023-05-31T07:05:37;102815.91;;;20.78;100.00
29549;BME280;16487;53.094;8.800;2023-05-31T07:08:05;102808.19;;;21.00;100.00
29549;BME280;16487;53.094;8.800;2023-05-31T07:10:37;102810.22;;;20.99;100.00
29549;BME280;16487;53.094;8.800;2023-05-31T07:13:04;102811.13;;;20.96;100.00
29549;BME280;16487;53.094;8.800;2023-05-31T07:15:32;102805.34;;;21.00;100.00
29549;BME280;16487;53.094;8.800;2023-05-31T07:18:00;102806.47;;;21.11;100.00
29549;BME280;16487;53.094;8.800;2023-05-31T07:20:29;102802.69;;;21.05;100.00
29549;BME280;16487;53.094;8.800;2023-05-31T07:22:57;102792.81;;;21.95;100.00
29549;BME280;16487;53.094;8.800;2023-05-31T07:25:24;102789.97;;;22.04;100.00
29549;BME280;16487;53.094;8.800;2023-05-31T07:27:52;102798.16;;;21.75;100.00
29549;BME280;16487;53.094;8.800;2023-05-31T07:30:19;102789.78;;;22.34;100.00
29549;BME280;16487;53.094;8.800;2023-05-31T07:32:47;102790.91;;;22.28;100.00
29549;BME280;16487;53.094;8.800;2023-05-31T07:35:15;102788.56;;;21.90;100.00
29549;BME280;16487;53.094;8.800;2023-05-31T07:37:44;102775.69;;;22.58;100.00
29549;BME280;16487;53.094;8.800;2023-05-31T07:40:12;102779.69;;;22.15;100.00
29549;BME280;16487;53.094;8.800;2023-05-31T07:42:39;102775.25;;;22.23;100.00
29549;BME280;16487;53.094;8.800;2023-05-31T07:45:07;102763.56;;;22.57;100.00
29549;BME280;16487;53.094;8.800;2023-05-31T07:47:35;102766.22;;;22.52;100.00
29549;BME280;16487;53.094;8.800;2023-05-31T07:50:02;102767.81;;;22.62;100.00
29549;BME280;16487;53.094;8.800;2023-05-31T07:52:31;102762.59;;;22.51;100.00
29549;BME280;16487;53.094;8.800;2023-05-31T07:55:00;102763.00;;;22.77;100.00
29549;BME280;16487;53.094;8.800;2023-05-31T07:57:28;102765.81;;;22.08;100.00
29549;BME280;16487;53.094;8.800;2023-05-31T07:59:55;102762.06;;;22.80;100.00
29549;BME280;16487;53.094;8.800;2023-05-31T08:02:22;102766.31;;;23.17;100.00
29549;BME280;16487;53.094;8.800;2023-05-31T08:04:50;102768.00;;;22.40;100.00
29549;BME280;16487;53.094;8.800;2023-05-31T08:07:17;102760.09;;;22.95;100.00
29549;BME280;16487;53.094;8.800;2023-05-31T08:09:45;102749.09;;;23.44;100.00
29549;BME280;16487;53.094;8.800;2023-05-31T08:12:13;102751.97;;;23.44;100.00
29549;BME280;16487;53.094;8.800;2023-05-31T08:14:41;102745.41;;;23.91;100.00
29549;BME280;16487;53.094;8.800;2023-05-31T08:17:08;102745.19;;;23.80;100.00
29549;BME280;16487;53.094;8.800;2023-05-31T08:19:36;102748.88;;;23.24;100.00
29549;BME280;16487;53.094;8.800;2023-05-31T08:22:05;102753.09;;;23.38;100.00
29549;BME280;16487;53.094;8.800;2023-05-31T08:24:32;102747.44;;;23.76;100.00
29549;BME280;16487;53.094;8.800;2023-05-31T08:27:00;102745.38;;;23.76;100.00
29549;BME280;16487;53.094;8.800;2023-05-31T08:29:29;102736.03;;;24.14;100.00
29549;BME280;16487;53.094;8.800;2023-05-31T08:31:56;102735.09;;;23.94;100.00
29549;BME280;16487;53.094;8.800;2023-05-31T08:34:24;102731.31;;;24.40;100.00
29549;BME280;16487;53.094;8.800;2023-05-31T08:36:51;102725.91;;;24.57;100.00
29549;BME280;16487;53.094;8.800;2023-05-31T08:39:19;102733.69;;;24.56;100.00
29549;BME280;16487;53.094;8.800;2023-05-31T08:41:51;102732.13;;;24.70;100.00
29549;BME280;16487;53.094;8.800;2023-05-31T08:44:20;102733.19;;;24.00;100.00
29549;BME280;16487;53.094;8.800;2023-05-31T08:46:48;102718.88;;;25.02;100.00
29549;BME280;16487;53.094;8.800;2023-05-31T08:49:17;102721.97;;;24.54;100.00
29549;BME280;16487;53.094;8.800;2023-05-31T08:51:47;102712.63;;;24.83;100.00
29549;BME280;16487;53.094;8.800;2023-05-31T08:54:16;102714.81;;;25.08;100.00
29549;BME280;16487;53.094;8.800;2023-05-31T08:56:45;102706.03;;;25.32;100.00
29549;BME280;16487;53.094;8.800;2023-05-31T08:59:13;102706.63;;;25.16;100.00
29549;BME280;16487;53.094;8.800;2023-05-31T09:01:41;102705.06;;;25.55;100.00
29549;BME280;16487;53.094;8.800;2023-05-31T09:04:10;102702.44;;;25.71;100.00
29549;BME280;16487;53.094;8.800;2023-05-31T09:06:38;102715.47;;;24.68;100.00
29549;BME280;16487;53.094;8.800;2023-05-31T09:09:06;102680.09;;;26.21;100.00
29549;BME280;16487;53.094;8.800;2023-05-31T09:11:33;102681.81;;;26.13;100.00
29549;BME280;16487;53.094;8.800;2023-05-31T09:14:07;102686.34;;;25.74;100.00
29549;BME280;16487;53.094;8.800;2023-05-31T09:16:35;102681.69;;;26.59;100.00
29549;BME280;16487;53.094;8.800;2023-05-31T09:19:03;102670.72;;;26.21;100.00
29549;BME280;16487;53.094;8.800;2023-05-31T09:21:39;102671.63;;;26.07;100.00
29549;BME280;16487;53.094;8.800;2023-05-31T09:24:06;102649.28;;;28.07;100.00
29549;BME280;16487;53.094;8.800;2023-05-31T09:26:34;102631.00;;;28.76;100.00
29549;BME280;16487;53.094;8.800;2023-05-31T09:29:01;102622.81;;;29.02;100.00
29549;BME280;16487;53.094;8.800;2023-05-31T09:31:29;102618.78;;;29.85;100.00
29549;BME280;16487;53.094;8.800;2023-05-31T09:33:56;102613.91;;;29.22;100.00
29549;BME280;16487;53.094;8.800;2023-05-31T09:36:25;102623.97;;;28.66;100.00
29549;BME280;16487;53.094;8.800;2023-05-31T09:39:02;102609.97;;;29.72;100.00
29549;BME280;16487;53.094;8.800;2023-05-31T09:41:31;102625.50;;;28.89;100.00
29549;BME280;16487;53.094;8.800;2023-05-31T09:43:59;102612.84;;;29.20;100.00
29549;BME280;16487;53.094;8.800;2023-05-31T09:46:27;102608.22;;;30.82;100.00
29549;BME280;16487;53.094;8.800;2023-05-31T09:48:58;102591.56;;;30.93;100.00
29549;BME280;16487;53.094;8.800;2023-05-31T09:51:26;102586.91;;;31.09;100.00
29549;BME280;16487;53.094;8.800;2023-05-31T09:53:55;102601.88;;;29.65;100.00
29549;BME280;16487;53.094;8.800;2023-05-31T09:56:28;102588.25;;;31.26;100.00
29549;BME280;16487;53.094;8.800;2023-05-31T09:58:56;102586.06;;;30.71;100.00
29549;BME280;16487;53.094;8.800;2023-05-31T10:01:24;102575.63;;;31.11;100.00
29549;BME280;16487;53.094;8.800;2023-05-31T10:03:52;102568.94;;;31.40;100.00
29549;BME280;16487;53.094;8.800;2023-05-31T10:06:20;102592.16;;;30.08;100.00
29549;BME280;16487;53.094;8.800;2023-05-31T10:08:47;102568.28;;;30.67;100.00
29549;BME280;16487;53.094;8.800;2023-05-31T10:11:17;102588.56;;;29.21;100.00
29549;BME280;16487;53.094;8.800;2023-05-31T10:13:50;102579.19;;;30.74;100.00
29549;BME280;16487;53.094;8.800;2023-05-31T10:16:21;102556.53;;;31.64;100.00
29549;BME280;16487;53.094;8.800;2023-05-31T10:18:53;102577.06;;;30.56;100.00
29549;BME280;16487;53.094;8.800;2023-05-31T10:21:24;102579.56;;;30.11;100.00
29549;BME280;16487;53.094;8.800;2023-05-31T10:23:57;102576.88;;;30.24;100.00
29549;BME280;16487;53.094;8.800;2023-05-31T10:26:29;102573.34;;;30.37;100.00
29549;BME280;16487;53.094;8.800;2023-05-31T10:29:05;102563.69;;;30.34;100.00
29549;BME280;16487;53.094;8.800;2023-05-31T10:31:40;102561.22;;;30.92;100.00
29549;BME280;16487;53.094;8.800;2023-05-31T10:34:16;102546.91;;;31.42;100.00
29549;BME280;16487;53.094;8.800;2023-05-31T10:36:46;102564.53;;;30.54;100.00
29549;BME280;16487;53.094;8.800;2023-05-31T10:39:19;102551.69;;;31.72;100.00
29549;BME280;16487;53.094;8.800;2023-05-31T10:41:54;102562.31;;;30.11;100.00
29549;BME280;16487;53.094;8.800;2023-05-31T10:44:29;102550.06;;;30.59;100.00
29549;BME280;16487;53.094;8.800;2023-05-31T10:47:01;102552.94;;;31.20;100.00
29549;BME280;16487;53.094;8.800;2023-05-31T10:49:32;102530.44;;;32.72;100.00
29549;BME280;16487;53.094;8.800;2023-05-31T10:52:04;102535.59;;;32.08;100.00
29549;BME280;16487;53.094;8.800;2023-05-31T10:54:32;102531.50;;;31.72;100.00
29549;BME280;16487;53.094;8.800;2023-05-31T10:57:03;102534.88;;;30.59;100.00
29549;BME280;16487;53.094;8.800;2023-05-31T10:59:41;102537.72;;;30.40;100.00
29549;BME280;16487;53.094;8.800;2023-05-31T11:02:09;102527.28;;;30.13;100.00
29549;BME280;16487;53.094;8.800;2023-05-31T11:04:37;102513.63;;;32.96;100.00
29549;BME280;16487;53.094;8.800;2023-05-31T11:07:14;102520.47;;;31.89;100.00
29549;BME280;16487;53.094;8.800;2023-05-31T11:09:53;102507.75;;;33.02;100.00
29549;BME280;16487;53.094;8.800;2023-05-31T11:12:31;102530.84;;;32.36;100.00
29549;BME280;16487;53.094;8.800;2023-05-31T11:15:01;102530.31;;;32.51;100.00
29549;BME280;16487;53.094;8.800;2023-05-31T11:17:29;102526.72;;;32.06;100.00
29549;BME280;16487;53.094;8.800;2023-05-31T11:20:06;102518.88;;;32.85;100.00
29549;BME280;16487;53.094;8.800;2023-05-31T11:22:34;102525.22;;;32.44;100.00
29549;BME280;16487;53.094;8.800;2023-05-31T11:25:01;102523.56;;;33.21;100.00
29549;BME280;16487;53.094;8.800;2023-05-31T11:27:35;102538.56;;;31.71;100.00
29549;BME280;16487;53.094;8.800;2023-05-31T11:30:08;102553.34;;;29.91;100.00
29549;BME280;16487;53.094;8.800;2023-05-31T11:32:55;102545.41;;;31.55;100.00
29549;BME280;16487;53.094;8.800;2023-05-31T11:35:23;102545.97;;;30.97;100.00
29549;BME280;16487;53.094;8.800;2023-05-31T11:38:00;102539.41;;;31.84;100.00
29549;BME280;16487;53.094;8.800;2023-05-31T11:40:28;102547.53;;;31.17;100.00
29549;BME280;16487;53.094;8.800;2023-05-31T11:43:02;102550.63;;;30.58;100.00
29549;BME280;16487;53.094;8.800;2023-05-31T11:45:40;102531.38;;;31.08;100.00
29549;BME280;16487;53.094;8.800;2023-05-31T11:48:29;102530.16;;;31.73;100.00
29549;BME280;16487;53.094;8.800;2023-05-31T11:51:04;102531.56;;;30.97;100.00
29549;BME280;16487;53.094;8.800;2023-05-31T11:53:31;102518.97;;;32.14;100.00
29549;BME280;16487;53.094;8.800;2023-05-31T11:56:02;102509.88;;;32.49;100.00
29549;BME280;16487;53.094;8.800;2023-05-31T11:58:29;102513.13;;;32.59;100.00
29549;BME280;16487;53.094;8.800;2023-05-31T12:00:59;102510.97;;;32.20;100.00
29549;BME280;16487;53.094;8.800;2023-05-31T12:03:27;102506.31;;;32.17;100.00
29549;BME280;16487;53.094;8.800;2023-05-31T12:05:58;102512.97;;;32.25;100.00
29549;BME280;16487;53.094;8.800;2023-05-31T12:08:26;102508.59;;;31.61;100.00
29549;BME280;16487;53.094;8.800;2023-05-31T12:10:53;102496.63;;;32.93;100.00
29549;BME280;16487;53.094;8.800;2023-05-31T12:13:28;102479.19;;;33.52;100.00
29549;BME280;16487;53.094;8.800;2023-05-31T12:15:55;102473.88;;;34.41;100.00
29549;BME280;16487;53.094;8.800;2023-05-31T12:18:24;102486.09;;;32.04;100.00
29549;BME280;16487;53.094;8.800;2023-05-31T12:20:51;102500.78;;;31.42;100.00
29549;BME280;16487;53.094;8.800;2023-05-31T12:23:20;102480.66;;;32.26;100.00
29549;BME280;16487;53.094;8.800;2023-05-31T12:25:47;102482.28;;;31.83;100.00
29549;BME280;16487;53.094;8.800;2023-05-31T12:28:17;102493.91;;;31.46;100.00
29549;BME280;16487;53.094;8.800;2023-05-31T12:30:45;102470.50;;;32.85;100.00
29549;BME280;16487;53.094;8.800;2023-05-31T12:33:15;102480.22;;;31.65;100.00
29549;BME280;16487;53.094;8.800;2023-05-31T12:35:45;102479.81;;;31.74;100.00
29549;BME280;16487;53.094;8.800;2023-05-31T12:38:13;102474.91;;;32.53;100.00
29549;BME280;16487;53.094;8.800;2023-05-31T12:40:41;102473.22;;;32.18;100.00
29549;BME280;16487;53.094;8.800;2023-05-31T12:43:11;102465.22;;;32.63;100.00
29549;BME280;16487;53.094;8.800;2023-05-31T12:45:39;102460.78;;;32.62;100.00
29549;BME280;16487;53.094;8.800;2023-05-31T12:48:08;102461.47;;;32.42;100.00
29549;BME280;16487;53.094;8.800;2023-05-31T12:50:36;102427.38;;;34.39;100.00
29549;BME280;16487;53.094;8.800;2023-05-31T12:53:06;102460.34;;;32.06;100.00